sensor_id;sensor_type;location;lat;lon;timestamp;P1;durP1;ratioP1;P2;durP2;ratioP2
16015;SDS011;8112;53.592;10.184;2023-04-01T00:03:52;6.67;;;4.17;;
16015;SDS011;8112;53.592;10.184;2023-04-01T00:08:54;4.77;;;4.20;;
16015;SDS011;8112;53.592;10.184;2023-04-01T00:13:56;6.00;;;4.13;;
16015;SDS011;8112;53.592;10.184;2023-04-01T00:18:59;8.13;;;4.30;;
16015;SDS011;8112;53.592;10.184;2023-04-01T00:24:01;5.33;;;4.33;;
16015;SDS011;8112;53.592;10.184;2023-04-01T00:29:03;6.53;;;4.33;;
16015;SDS011;8112;53.592;10.184;2023-04-01T00:34:06;7.13;;;5.07;;
16015;SDS011;8112;53.592;10.184;2023-04-01T00:39:08;6.40;;;4.47;;
16015;SDS011;8112;53.592;10.184;2023-04-01T00:44:17;6.17;;;4.27;;
16015;SDS011;8112;53.592;10.184;2023-04-01T00:49:23;6.80;;;4.87;;
16015;SDS011;8112;53.592;10.184;2023-04-01T00:54:30;5.27;;;4.23;;
16015;SDS011;8112;53.592;10.184;2023-04-01T00:59:34;9.53;;;4.60;;
16015;SDS011;8112;53.592;10.184;2023-04-01T01:04:41;6.50;;;4.53;;
16015;SDS011;8112;53.592;10.184;2023-04-01T01:09:45;8.00;;;4.80;;
16015;SDS011;8112;53.592;10.184;2023-04-01T01:14:55;6.83;;;4.57;;
16015;SDS011;8112;53.592;10.184;2023-04-01T01:25:56;6.37;;;4.63;;
16015;SDS011;8112;53.592;10.184;2023-04-01T01:31:12;6.77;;;4.80;;
16015;SDS011;8112;53.592;10.184;2023-04-01T01:36:23;6.33;;;4.70;;
16015;SDS011;8112;53.592;10.184;2023-04-01T01:41:30;6.17;;;4.63;;
16015;SDS011;8112;53.592;10.184;2023-04-01T01:46:33;7.10;;;4.40;;
16015;SDS011;8112;53.592;10.184;2023-04-01T01:51:38;6.57;;;5.00;;
16015;SDS011;8112;53.592;10.184;2023-04-01T01:56:42;9.37;;;5.07;;
16015;SDS011;8112;53.592;10.184;2023-04-01T02:01:49;7.60;;;5.03;;
16015;SDS011;8112;53.592;10.184;2023-04-01T02:06:55;7.50;;;5.07;;
16015;SDS011;8112;53.592;10.184;2023-04-01T02:12:05;8.70;;;5.13;;
16015;SDS011;8112;53.592;10.184;2023-04-01T02:17:14;7.60;;;5.10;;
16015;SDS011;8112;53.592;10.184;2023-04-01T02:22:22;7.43;;;5.00;;
16015;SDS011;8112;53.592;10.184;2023-04-01T02:27:29;8.00;;;5.30;;
16015;SDS011;8112;53.592;10.184;2023-04-01T02:32:34;7.30;;;4.70;;
16015;SDS011;8112;53.592;10.184;2023-04-01T02:37:40;6.60;;;4.60;;
16015;SDS011;8112;53.592;10.184;2023-04-01T02:42:44;6.13;;;5.43;;
16015;SDS011;8112;53.592;10.184;2023-04-01T02:47:46;6.60;;;4.77;;
16015;SDS011;8112;53.592;10.184;2023-04-01T02:52:49;12.87;;;4.97;;
16015;SDS011;8112;53.592;10.184;2023-04-01T02:57:51;7.80;;;5.33;;
16015;SDS011;8112;53.592;10.184;2023-04-01T03:02:53;6.00;;;4.83;;
16015;SDS011;8112;53.592;10.184;2023-04-01T03:07:56;6.17;;;4.73;;
16015;SDS011;8112;53.592;10.184;2023-04-01T03:12:57;8.40;;;5.73;;
16015;SDS011;8112;53.592;10.184;2023-04-01T03:18:00;7.97;;;5.93;;
16015;SDS011;8112;53.592;10.184;2023-04-01T03:23:03;6.73;;;5.63;;
16015;SDS011;8112;53.592;10.184;2023-04-01T03:28:05;8.47;;;5.83;;
16015;SDS011;8112;53.592;10.184;2023-04-01T03:33:06;7.23;;;5.93;;
16015;SDS011;8112;53.592;10.184;2023-04-01T03:38:09;7.87;;;6.77;;
16015;SDS011;8112;53.592;10.184;2023-04-01T03:43:15;8.10;;;6.27;;
16015;SDS011;8112;53.592;10.184;2023-04-01T03:48:17;7.90;;;6.23;;
16015;SDS011;8112;53.592;10.184;2023-04-01T03:53:21;7.60;;;6.80;;
16015;SDS011;8112;53.592;10.184;2023-04-01T03:58:23;9.40;;;7.03;;
16015;SDS011;8112;53.592;10.184;2023-04-01T04:03:26;10.07;;;7.60;;
16015;SDS011;8112;53.592;10.184;2023-04-01T04:08:29;9.53;;;7.03;;
16015;SDS011;8112;53.592;10.184;2023-04-01T04:13:31;7.33;;;6.50;;
16015;SDS011;8112;53.592;10.184;2023-04-01T04:18:35;8.20;;;6.90;;
16015;SDS011;8112;53.592;10.184;2023-04-01T04:23:38;9.40;;;7.53;;
16015;SDS011;8112;53.592;10.184;2023-04-01T04:28:41;8.10;;;6.43;;
16015;SDS011;8112;53.592;10.184;2023-04-01T04:33:42;7.43;;;5.90;;
16015;SDS011;8112;53.592;10.184;2023-04-01T04:38:46;6.93;;;6.23;;
16015;SDS011;8112;53.592;10.184;2023-04-01T04:43:50;6.27;;;5.30;;
16015;SDS011;8112;53.592;10.184;2023-04-01T04:49:03;7.87;;;6.00;;
16015;SDS011;8112;53.592;10.184;2023-04-01T04:54:08;5.90;;;5.17;;
16015;SDS011;8112;53.592;10.184;2023-04-01T04:59:22;7.53;;;5.50;;
16015;SDS011;8112;53.592;10.184;2023-04-01T05:04:39;8.37;;;6.00;;
16015;SDS011;8112;53.592;10.184;2023-04-01T05:09:45;7.07;;;6.10;;
16015;SDS011;8112;53.592;10.184;2023-04-01T05:14:47;2.00;;;1.80;;
16015;SDS011;8112;53.592;10.184;2023-04-01T05:19:49;1.80;;;1.40;;
16015;SDS011;8112;53.592;10.184;2023-04-01T05:24:52;1.97;;;1.77;;
16015;SDS011;8112;53.592;10.184;2023-04-01T05:29:55;2.30;;;1.77;;
16015;SDS011;8112;53.592;10.184;2023-04-01T05:35:15;2.90;;;1.43;;
16015;SDS011;8112;53.592;10.184;2023-04-01T05:40:18;2.27;;;1.80;;
16015;SDS011;8112;53.592;10.184;2023-04-01T05:45:20;2.23;;;1.40;;
16015;SDS011;8112;53.592;10.184;2023-04-01T05:50:58;1.60;;;1.43;;
16015;SDS011;8112;53.592;10.184;2023-04-01T05:56:03;1.53;;;1.43;;
16015;SDS011;8112;53.592;10.184;2023-04-01T06:01:10;1.80;;;1.40;;
16015;SDS011;8112;53.592;10.184;2023-04-01T06:06:13;1.60;;;1.50;;
16015;SDS011;8112;53.592;10.184;2023-04-01T06:11:21;1.37;;;1.27;;
16015;SDS011;8112;53.592;10.184;2023-04-01T06:16:33;2.90;;;1.13;;
16015;SDS011;8112;53.592;10.184;2023-04-01T06:21:45;1.20;;;1.00;;
16015;SDS011;8112;53.592;10.184;2023-04-01T06:27:03;1.30;;;1.20;;
16015;SDS011;8112;53.592;10.184;2023-04-01T06:32:18;1.00;;;0.90;;
16015;SDS011;8112;53.592;10.184;2023-04-01T06:37:44;1.13;;;1.03;;
16015;SDS011;8112;53.592;10.184;2023-04-01T06:43:06;0.80;;;0.80;;
16015;SDS011;8112;53.592;10.184;2023-04-01T06:48:48;1.20;;;1.10;;
16015;SDS011;8112;53.592;10.184;2023-04-01T06:54:15;0.93;;;0.90;;
16015;SDS011;8112;53.592;10.184;2023-04-01T06:59:40;1.30;;;0.80;;
16015;SDS011;8112;53.592;10.184;2023-04-01T07:04:44;1.20;;;1.10;;
16015;SDS011;8112;53.592;10.184;2023-04-01T07:09:50;1.03;;;1.00;;
16015;SDS011;8112;53.592;10.184;2023-04-01T07:15:11;1.10;;;1.00;;
16015;SDS011;8112;53.592;10.184;2023-04-01T07:20:20;1.10;;;1.00;;
16015;SDS011;8112;53.592;10.184;2023-04-01T07:25:27;0.87;;;0.87;;
16015;SDS011;8112;53.592;10.184;2023-04-01T07:30:57;0.97;;;0.83;;
16015;SDS011;8112;53.592;10.184;2023-04-01T07:36:10;1.00;;;1.00;;
16015;SDS011;8112;53.592;10.184;2023-04-01T07:41:22;1.00;;;0.90;;
16015;SDS011;8112;53.592;10.184;2023-04-01T07:46:38;0.80;;;0.70;;
16015;SDS011;8112;53.592;10.184;2023-04-01T07:51:52;1.93;;;1.00;;
16015;SDS011;8112;53.592;10.184;2023-04-01T07:57:01;0.90;;;0.90;;
16015;SDS011;8112;53.592;10.184;2023-04-01T08:02:24;0.83;;;0.83;;
16015;SDS011;8112;53.592;10.184;2023-04-01T08:07:37;0.87;;;0.87;;
16015;SDS011;8112;53.592;10.184;2023-04-01T08:13:09;1.20;;;1.00;;
16015;SDS011;8112;53.592;10.184;2023-04-01T08:18:38;0.87;;;0.80;;
16015;SDS011;8112;53.592;10.184;2023-04-01T08:23:49;0.97;;;0.90;;
16015;SDS011;8112;53.592;10.184;2023-04-01T08:28:54;1.30;;;1.20;;
16015;SDS011;8112;53.592;10.184;2023-04-01T08:34:03;0.77;;;0.70;;
16015;SDS011;8112;53.592;10.184;2023-04-01T08:39:10;0.87;;;0.80;;
16015;SDS011;8112;53.592;10.184;2023-04-01T08:44:30;0.80;;;0.80;;
16015;SDS011;8112;53.592;10.184;2023-04-01T08:49:48;0.70;;;0.70;;
16015;SDS011;8112;53.592;10.184;2023-04-01T08:55:38;0.97;;;0.77;;
16015;SDS011;8112;53.592;10.184;2023-04-01T09:01:03;1.07;;;0.77;;
16015;SDS011;8112;53.592;10.184;2023-04-01T09:06:26;0.90;;;0.90;;
16015;SDS011;8112;53.592;10.184;2023-04-01T09:11:39;0.87;;;0.80;;
16015;SDS011;8112;53.592;10.184;2023-04-01T09:17:09;0.70;;;0.70;;
16015;SDS011;8112;53.592;10.184;2023-04-01T09:22:33;0.83;;;0.83;;
16015;SDS011;8112;53.592;10.184;2023-04-01T09:27:45;2.63;;;1.00;;
16015;SDS011;8112;53.592;10.184;2023-04-01T09:38:44;1.33;;;1.00;;
16015;SDS011;8112;53.592;10.184;2023-04-01T09:43:58;0.63;;;0.60;;
16015;SDS011;8112;53.592;10.184;2023-04-01T09:49:11;1.67;;;1.10;;
16015;SDS011;8112;53.592;10.184;2023-04-01T09:54:39;1.23;;;1.13;;
16015;SDS011;8112;53.592;10.184;2023-04-01T10:11:37;0.83;;;0.80;;
16015;SDS011;8112;53.592;10.184;2023-04-01T10:17:11;0.60;;;0.60;;
16015;SDS011;8112;53.592;10.184;2023-04-01T10:23:02;0.63;;;0.60;;
16015;SDS011;8112;53.592;10.184;2023-04-01T10:40:07;0.50;;;0.50;;
16015;SDS011;8112;53.592;10.184;2023-04-01T10:46:12;0.70;;;0.70;;
16015;SDS011;8112;53.592;10.184;2023-04-01T10:57:57;1.23;;;1.03;;
16015;SDS011;8112;53.592;10.184;2023-04-01T11:10:06;0.80;;;0.80;;
16015;SDS011;8112;53.592;10.184;2023-04-01T11:15:55;1.60;;;0.93;;
16015;SDS011;8112;53.592;10.184;2023-04-01T11:26:52;1.10;;;1.00;;
16015;SDS011;8112;53.592;10.184;2023-04-01T11:32:33;1.80;;;1.30;;
16015;SDS011;8112;53.592;10.184;2023-04-01T11:37:45;1.20;;;1.10;;
16015;SDS011;8112;53.592;10.184;2023-04-01T11:43:16;2.00;;;1.80;;
16015;SDS011;8112;53.592;10.184;2023-04-01T11:48:53;2.40;;;2.20;;
16015;SDS011;8112;53.592;10.184;2023-04-01T11:54:04;2.20;;;2.00;;
16015;SDS011;8112;53.592;10.184;2023-04-01T11:59:21;3.47;;;2.10;;
16015;SDS011;8112;53.592;10.184;2023-04-01T12:04:46;3.17;;;2.53;;
16015;SDS011;8112;53.592;10.184;2023-04-01T12:10:01;5.77;;;3.13;;
16015;SDS011;8112;53.592;10.184;2023-04-01T12:15:17;2.77;;;2.40;;
16015;SDS011;8112;53.592;10.184;2023-04-01T12:20:33;3.70;;;2.93;;
16015;SDS011;8112;53.592;10.184;2023-04-01T12:31:34;4.93;;;3.40;;
16015;SDS011;8112;53.592;10.184;2023-04-01T12:36:47;4.03;;;3.10;;
16015;SDS011;8112;53.592;10.184;2023-04-01T12:41:59;5.10;;;3.00;;
16015;SDS011;8112;53.592;10.184;2023-04-01T12:52:56;4.30;;;3.10;;
16015;SDS011;8112;53.592;10.184;2023-04-01T13:09:42;2.60;;;2.40;;
16015;SDS011;8112;53.592;10.184;2023-04-01T13:14:55;2.83;;;2.40;;
16015;SDS011;8112;53.592;10.184;2023-04-01T13:20:13;4.00;;;2.60;;
16015;SDS011;8112;53.592;10.184;2023-04-01T13:25:22;4.00;;;3.20;;
16015;SDS011;8112;53.592;10.184;2023-04-01T13:30:29;4.63;;;2.90;;
16015;SDS011;8112;53.592;10.184;2023-04-01T13:35:36;6.23;;;3.17;;
16015;SDS011;8112;53.592;10.184;2023-04-01T13:40:47;4.20;;;2.87;;
16015;SDS011;8112;53.592;10.184;2023-04-01T13:46:06;3.17;;;2.87;;
16015;SDS011;8112;53.592;10.184;2023-04-01T13:57:00;4.13;;;3.30;;
16015;SDS011;8112;53.592;10.184;2023-04-01T14:02:27;3.97;;;3.20;;
16015;SDS011;8112;53.592;10.184;2023-04-01T14:07:42;4.83;;;3.17;;
16015;SDS011;8112;53.592;10.184;2023-04-01T14:12:57;6.77;;;4.93;;
16015;SDS011;8112;53.592;10.184;2023-04-01T14:18:07;4.50;;;3.33;;
16015;SDS011;8112;53.592;10.184;2023-04-01T14:23:24;4.13;;;3.17;;
16015;SDS011;8112;53.592;10.184;2023-04-01T14:28:40;3.90;;;3.50;;
16015;SDS011;8112;53.592;10.184;2023-04-01T14:33:50;4.90;;;3.87;;
16015;SDS011;8112;53.592;10.184;2023-04-01T14:39:07;5.10;;;3.40;;
16015;SDS011;8112;53.592;10.184;2023-04-01T14:44:33;4.23;;;3.50;;
16015;SDS011;8112;53.592;10.184;2023-04-01T14:49:52;5.80;;;4.00;;
16015;SDS011;8112;53.592;10.184;2023-04-01T14:55:10;5.47;;;3.53;;
16015;SDS011;8112;53.592;10.184;2023-04-01T15:00:22;6.10;;;3.87;;
16015;SDS011;8112;53.592;10.184;2023-04-01T15:05:27;5.77;;;3.80;;
16015;SDS011;8112;53.592;10.184;2023-04-01T15:10:43;5.10;;;3.67;;
16015;SDS011;8112;53.592;10.184;2023-04-01T15:16:10;4.87;;;3.67;;
16015;SDS011;8112;53.592;10.184;2023-04-01T15:21:30;5.10;;;3.73;;
16015;SDS011;8112;53.592;10.184;2023-04-01T15:26:47;6.60;;;4.27;;
16015;SDS011;8112;53.592;10.184;2023-04-01T15:32:00;6.67;;;4.00;;
16015;SDS011;8112;53.592;10.184;2023-04-01T15:37:10;5.37;;;3.97;;
16015;SDS011;8112;53.592;10.184;2023-04-01T15:42:23;5.63;;;4.10;;
16015;SDS011;8112;53.592;10.184;2023-04-01T15:47:42;7.07;;;4.50;;
16015;SDS011;8112;53.592;10.184;2023-04-01T15:52:48;4.43;;;3.37;;
16015;SDS011;8112;53.592;10.184;2023-04-01T15:58:02;6.73;;;4.23;;
16015;SDS011;8112;53.592;10.184;2023-04-01T16:03:38;8.00;;;5.70;;
16015;SDS011;8112;53.592;10.184;2023-04-01T16:08:51;5.47;;;4.33;;
16015;SDS011;8112;53.592;10.184;2023-04-01T16:14:07;7.47;;;4.33;;
16015;SDS011;8112;53.592;10.184;2023-04-01T16:19:22;6.40;;;3.83;;
16015;SDS011;8112;53.592;10.184;2023-04-01T16:24:40;7.80;;;4.50;;
16015;SDS011;8112;53.592;10.184;2023-04-01T16:29:47;8.87;;;4.50;;
16015;SDS011;8112;53.592;10.184;2023-04-01T16:34:56;11.27;;;4.60;;
16015;SDS011;8112;53.592;10.184;2023-04-01T16:40:10;5.40;;;4.37;;
16015;SDS011;8112;53.592;10.184;2023-04-01T16:45:30;6.00;;;4.40;;
16015;SDS011;8112;53.592;10.184;2023-04-01T16:50:43;5.83;;;4.00;;
16015;SDS011;8112;53.592;10.184;2023-04-01T16:55:54;4.10;;;3.70;;
16015;SDS011;8112;53.592;10.184;2023-04-01T17:01:05;7.23;;;4.23;;
16015;SDS011;8112;53.592;10.184;2023-04-01T17:06:19;7.47;;;4.77;;
16015;SDS011;8112;53.592;10.184;2023-04-01T17:11:31;6.53;;;5.00;;
16015;SDS011;8112;53.592;10.184;2023-04-01T17:16:46;7.47;;;5.37;;
16015;SDS011;8112;53.592;10.184;2023-04-01T17:22:04;10.47;;;4.87;;
16015;SDS011;8112;53.592;10.184;2023-04-01T17:27:18;6.80;;;3.97;;
16015;SDS011;8112;53.592;10.184;2023-04-01T17:32:35;6.97;;;4.40;;
16015;SDS011;8112;53.592;10.184;2023-04-01T17:37:53;6.03;;;3.83;;
16015;SDS011;8112;53.592;10.184;2023-04-01T17:43:10;6.47;;;4.27;;
16015;SDS011;8112;53.592;10.184;2023-04-01T17:48:24;5.83;;;3.93;;
16015;SDS011;8112;53.592;10.184;2023-04-01T17:53:42;6.53;;;4.33;;
16015;SDS011;8112;53.592;10.184;2023-04-01T17:58:55;4.80;;;3.43;;
16015;SDS011;8112;53.592;10.184;2023-04-01T18:04:07;4.27;;;3.70;;
16015;SDS011;8112;53.592;10.184;2023-04-01T18:09:22;16.37;;;12.10;;
16015;SDS011;8112;53.592;10.184;2023-04-01T18:14:45;5.37;;;4.87;;
16015;SDS011;8112;53.592;10.184;2023-04-01T18:20:14;5.10;;;3.83;;
16015;SDS011;8112;53.592;10.184;2023-04-01T18:25:28;6.07;;;5.20;;
16015;SDS011;8112;53.592;10.184;2023-04-01T18:30:35;6.80;;;4.37;;
16015;SDS011;8112;53.592;10.184;2023-04-01T18:35:45;6.87;;;4.27;;
16015;SDS011;8112;53.592;10.184;2023-04-01T18:40:53;5.53;;;4.30;;
16015;SDS011;8112;53.592;10.184;2023-04-01T18:46:02;14.33;;;10.43;;
16015;SDS011;8112;53.592;10.184;2023-04-01T18:51:12;12.40;;;9.20;;
16015;SDS011;8112;53.592;10.184;2023-04-01T18:56:24;12.40;;;7.20;;
16015;SDS011;8112;53.592;10.184;2023-04-01T19:01:31;5.60;;;3.80;;
16015;SDS011;8112;53.592;10.184;2023-04-01T19:06:41;8.17;;;3.77;;
16015;SDS011;8112;53.592;10.184;2023-04-01T19:11:56;5.67;;;4.43;;
16015;SDS011;8112;53.592;10.184;2023-04-01T19:17:23;4.53;;;3.80;;
16015;SDS011;8112;53.592;10.184;2023-04-01T19:22:40;14.47;;;9.40;;
16015;SDS011;8112;53.592;10.184;2023-04-01T19:27:56;12.70;;;9.80;;
16015;SDS011;8112;53.592;10.184;2023-04-01T19:33:08;3.97;;;3.60;;
16015;SDS011;8112;53.592;10.184;2023-04-01T19:38:24;7.20;;;4.13;;
16015;SDS011;8112;53.592;10.184;2023-04-01T19:43:47;5.17;;;3.90;;
16015;SDS011;8112;53.592;10.184;2023-04-01T19:48:59;7.63;;;3.60;;
16015;SDS011;8112;53.592;10.184;2023-04-01T19:54:12;18.33;;;13.00;;
16015;SDS011;8112;53.592;10.184;2023-04-01T19:59:27;10.53;;;7.40;;
16015;SDS011;8112;53.592;10.184;2023-04-01T20:04:36;6.80;;;3.63;;
16015;SDS011;8112;53.592;10.184;2023-04-01T20:09:48;8.67;;;3.57;;
16015;SDS011;8112;53.592;10.184;2023-04-01T20:14:58;4.37;;;3.67;;
16015;SDS011;8112;53.592;10.184;2023-04-01T20:20:13;5.67;;;3.33;;
16015;SDS011;8112;53.592;10.184;2023-04-01T20:25:22;5.47;;;3.50;;
16015;SDS011;8112;53.592;10.184;2023-04-01T20:30:33;13.97;;;7.43;;
16015;SDS011;8112;53.592;10.184;2023-04-01T20:35:47;16.70;;;12.83;;
16015;SDS011;8112;53.592;10.184;2023-04-01T20:41:03;8.97;;;7.67;;
16015;SDS011;8112;53.592;10.184;2023-04-01T20:46:16;7.60;;;4.20;;
16015;SDS011;8112;53.592;10.184;2023-04-01T20:51:22;6.80;;;4.00;;
16015;SDS011;8112;53.592;10.184;2023-04-01T20:56:31;11.50;;;5.30;;
16015;SDS011;8112;53.592;10.184;2023-04-01T21:01:40;8.83;;;4.53;;
16015;SDS011;8112;53.592;10.184;2023-04-01T21:06:52;8.17;;;3.33;;
16015;SDS011;8112;53.592;10.184;2023-04-01T21:12:13;6.03;;;2.60;;
16015;SDS011;8112;53.592;10.184;2023-04-01T21:17:26;3.23;;;2.50;;
16015;SDS011;8112;53.592;10.184;2023-04-01T21:22:48;3.57;;;2.50;;
16015;SDS011;8112;53.592;10.184;2023-04-01T21:28:17;6.67;;;3.20;;
16015;SDS011;8112;53.592;10.184;2023-04-01T21:33:32;4.93;;;2.63;;
16015;SDS011;8112;53.592;10.184;2023-04-01T21:38:56;2.50;;;2.30;;
16015;SDS011;8112;53.592;10.184;2023-04-01T21:44:13;4.70;;;2.37;;
16015;SDS011;8112;53.592;10.184;2023-04-01T22:01:30;4.77;;;2.50;;
16015;SDS011;8112;53.592;10.184;2023-04-01T22:06:47;4.53;;;2.13;;
16015;SDS011;8112;53.592;10.184;2023-04-01T22:11:57;2.90;;;2.30;;
16015;SDS011;8112;53.592;10.184;2023-04-01T22:17:05;3.33;;;2.07;;
16015;SDS011;8112;53.592;10.184;2023-04-01T22:22:15;4.07;;;1.97;;
16015;SDS011;8112;53.592;10.184;2023-04-01T22:27:24;4.87;;;2.50;;
16015;SDS011;8112;53.592;10.184;2023-04-01T22:32:34;5.63;;;2.20;;
16015;SDS011;8112;53.592;10.184;2023-04-01T22:37:44;6.20;;;2.67;;
16015;SDS011;8112;53.592;10.184;2023-04-01T22:42:53;5.33;;;2.10;;
16015;SDS011;8112;53.592;10.184;2023-04-01T22:48:04;6.43;;;2.63;;
16015;SDS011;8112;53.592;10.184;2023-04-01T22:53:14;2.60;;;1.93;;
16015;SDS011;8112;53.592;10.184;2023-04-01T22:58:25;2.93;;;2.00;;
16015;SDS011;8112;53.592;10.184;2023-04-01T23:03:34;8.77;;;2.60;;
16015;SDS011;8112;53.592;10.184;2023-04-01T23:08:44;6.53;;;2.20;;
16015;SDS011;8112;53.592;10.184;2023-04-01T23:14:13;4.23;;;2.20;;
16015;SDS011;8112;53.592;10.184;2023-04-01T23:19:35;5.13;;;2.20;;
16015;SDS011;8112;53.592;10.184;2023-04-01T23:24:44;3.77;;;2.00;;
16015;SDS011;8112;53.592;10.184;2023-04-01T23:29:51;7.37;;;2.47;;
16015;SDS011;8112;53.592;10.184;2023-04-01T23:34:55;3.13;;;2.07;;
16015;SDS011;8112;53.592;10.184;2023-04-01T23:39:59;3.77;;;1.90;;
16015;SDS011;8112;53.592;10.184;2023-04-01T23:45:02;3.83;;;1.90;;
16015;SDS011;8112;53.592;10.184;2023-04-01T23:50:09;3.00;;;1.90;;
16015;SDS011;8112;53.592;10.184;2023-04-01T23:55:16;4.93;;;2.10;;
